Time;durP1;ratioP1;P1;durP2;ratioP2;P2;SDS_P1;SDS_P2;PMS_P1;PMS_P2;Temp;Humidity;BMP_temperature;BMP_pressure;BME280_temperature;BME280_humidity;BME280_pressure;Samples;Min_cycle;Max_cycle;Signal;HPM_P1;HPM_P2
2022/04/01 00:00:08;;;;;;;;;;;;;;;4.52;100.00;93652.06;1030549;28;19913;-70
2022/04/01 00:00:39;;;;;;;;;;;;;;;4.52;100.00;93654.66;1037728;28;19931;-71
2022/04/01 00:01:09;;;;;;;;;;;;;;;4.52;100.00;93655.44;1038306;28;19921;-70
2022/04/01 00:01:40;;;;;;;;;;;;;;;4.48;100.00;93650.00;1034739;28;19967;-70
2022/04/01 00:02:11;;;;;;;;;;;;;;;4.46;100.00;93652.13;1036899;28;19917;-71
2022/04/01 00:02:41;;;;;;;;;;;;;;;4.49;100.00;93651.56;1030600;28;19918;-70
2022/04/01 00:03:11;;;;;;;;;;;;;;;4.47;100.00;93652.91;1034757;28;19917;-70
2022/04/01 00:03:42;;;;;;;;;;;;;;;4.46;100.00;93654.72;1032293;28;19918;-70
2022/04/01 00:04:15;;;;;;;;;;;;;;;4.44;100.00;93649.03;1038116;28;19924;-70
2022/04/01 00:04:45;;;;;;;;;;;;;;;4.40;100.00;93655.81;1038536;28;20339;-70
2022/04/01 00:05:15;;;;;;;;;;;;;;;4.39;100.00;93659.47;1039090;28;19913;-71
2022/04/01 00:05:49;;;;;;;;;;;;;;;4.37;100.00;93653.78;1042305;28;19939;-71
2022/04/01 00:06:20;;;;;;;;;;;;;;;4.38;100.00;93655.31;1035202;28;20441;-71
2022/04/01 00:06:50;;;;;;;;;;;;;;;4.35;100.00;93652.50;1034368;28;20033;-71
2022/04/01 00:07:20;;;;;;;;;;;;;;;4.37;100.00;93653.78;1030991;28;19914;-71
2022/04/01 00:07:51;;;;;;;;;;;;;;;4.33;100.00;93654.59;1031586;28;19972;-71
2022/04/01 00:08:21;;;;;;;;;;;;;;;4.33;100.00;93655.38;1031709;28;20049;-71
2022/04/01 00:08:51;;;;;;;;;;;;;;;4.29;100.00;93656.94;1036003;28;20369;-70
2022/04/01 00:09:22;;;;;;;;;;;;;;;4.29;100.00;93653.59;1035405;28;19928;-71
2022/04/01 00:09:52;;;;;;;;;;;;;;;4.29;100.00;93653.59;1039689;28;19925;-71
2022/04/01 00:10:22;;;;;;;;;;;;;;;4.26;100.00;93649.72;1035424;28;19916;-71
2022/04/01 00:10:53;;;;;;;;;;;;;;;4.24;100.00;93660.38;1034684;28;19921;-70
2022/04/01 00:11:23;;;;;;;;;;;;;;;4.24;100.00;93650.00;1035667;28;19937;-70
2022/04/01 00:11:54;;;;;;;;;;;;;;;4.27;100.00;93653.88;1035278;28;19960;-71
2022/04/01 00:12:24;;;;;;;;;;;;;;;4.24;100.00;93654.41;1035199;28;19917;-70
2022/04/01 00:12:55;;;;;;;;;;;;;;;4.27;100.00;93655.69;1039586;28;20014;-70
2022/04/01 00:13:25;;;;;;;;;;;;;;;4.28;100.00;93657.22;1031246;28;19925;-70
2022/04/01 00:13:55;;;;;;;;;;;;;;;4.26;100.00;93657.53;1023030;28;20412;-70
2022/04/01 00:14:26;;;;;;;;;;;;;;;4.26;100.00;93657.53;1031277;28;19952;-71
2022/04/01 00:14:56;;;;;;;;;;;;;;;4.27;100.00;93653.09;1027541;28;19922;-71
2022/04/01 00:15:26;;;;;;;;;;;;;;;4.27;100.00;93653.88;1031564;28;19921;-71
2022/04/01 00:15:58;;;;;;;;;;;;;;;4.26;100.00;93652.31;1031199;28;19930;-70
2022/04/01 00:16:29;;;;;;;;;;;;;;;4.26;100.00;93652.31;1031650;28;19961;-71
2022/04/01 00:17:00;;;;;;;;;;;;;;;4.25;100.00;93655.94;1035748;28;19929;-71
2022/04/01 00:17:30;;;;;;;;;;;;;;;4.22;100.00;93652.06;1043359;28;19940;-70
2022/04/01 00:18:00;;;;;;;;;;;;;;;4.24;100.00;93654.41;1035867;28;19941;-71
2022/04/01 00:18:31;;;;;;;;;;;;;;;4.24;100.00;93651.81;1031368;28;19922;-70
2022/04/01 00:19:01;;;;;;;;;;;;;;;4.24;100.00;93659.59;1031227;28;19933;-70
2022/04/01 00:19:32;;;;;;;;;;;;;;;4.24;100.00;93657.78;1023820;28;19957;-71
2022/04/01 00:20:03;;;;;;;;;;;;;;;4.23;100.00;93656.25;1031434;28;20601;-70
2022/04/01 00:20:35;;;;;;;;;;;;;;;4.22;100.00;93656.50;1035852;28;19947;-70
2022/04/01 00:21:05;;;;;;;;;;;;;;;4.23;100.00;93658.84;1035661;28;19921;-70
2022/04/01 00:21:36;;;;;;;;;;;;;;;4.25;100.00;93655.94;1031398;28;20607;-71
2022/04/01 00:22:06;;;;;;;;;;;;;;;4.23;100.00;93658.06;1031701;28;19931;-71
2022/04/01 00:22:36;;;;;;;;;;;;;;;4.22;100.00;93656.50;1031095;28;19922;-71
2022/04/01 00:23:07;;;;;;;;;;;;;;;4.24;100.00;93664.78;1027357;28;19918;-69
2022/04/01 00:23:37;;;;;;;;;;;;;;;4.21;100.00;93657.56;1031555;28;19917;-71
2022/04/01 00:24:07;;;;;;;;;;;;;;;4.21;100.00;93658.31;1034444;28;19964;-71
2022/04/01 00:24:38;;;;;;;;;;;;;;;4.24;100.00;93660.38;1035201;28;19921;-70
2022/04/01 00:25:08;;;;;;;;;;;;;;;4.21;100.00;93660.91;1031707;28;19918;-71
2022/04/01 00:25:39;;;;;;;;;;;;;;;4.20;100.00;93659.38;1032828;28;20072;-70
2022/04/01 00:26:09;;;;;;;;;;;;;;;4.24;100.00;93657.78;1031340;28;19922;-71
2022/04/01 00:26:39;;;;;;;;;;;;;;;4.22;100.00;93651.31;1031573;28;19921;-70
2022/04/01 00:27:10;;;;;;;;;;;;;;;4.22;100.00;93659.09;1039638;28;20461;-71
2022/04/01 00:27:40;;;;;;;;;;;;;;;4.24;100.00;93654.41;1043588;28;19973;-70
2022/04/01 00:28:10;;;;;;;;;;;;;;;4.23;100.00;93655.47;1041700;28;19913;-70
2022/04/01 00:28:40;;;;;;;;;;;;;;;4.23;100.00;93653.66;1035207;28;20019;-71
2022/04/01 00:29:17;;;;;;;;;;;;;;;4.22;100.00;93652.06;1035737;28;19929;-70
2022/04/01 00:29:48;;;;;;;;;;;;;;;4.23;100.00;93653.66;1032069;28;19902;-70
2022/04/01 00:30:18;;;;;;;;;;;;;;;4.24;100.00;93655.19;1031868;28;19964;-70
2022/04/01 00:30:49;;;;;;;;;;;;;;;4.21;100.00;93652.34;1031384;28;20461;-71
2022/04/01 00:31:20;;;;;;;;;;;;;;;4.18;100.00;93653.69;1034426;28;19912;-70
2022/04/01 00:32:01;;;;;;;;;;;;;;;4.19;100.00;93657.84;1031284;28;19978;-70
2022/04/01 00:32:31;;;;;;;;;;;;;;;4.20;100.00;93653.41;1035548;28;19920;-70
2022/04/01 00:33:01;;;;;;;;;;;;;;;4.21;100.00;93654.97;1030190;28;19981;-68
2022/04/01 00:33:32;;;;;;;;;;;;;;;4.19;100.00;93652.66;1028484;28;19977;-70
2022/04/01 00:34:17;;;;;;;;;;;;;;;4.22;100.00;93656.50;1030799;28;20614;-69
2022/04/01 00:34:48;;;;;;;;;;;;;;;4.18;100.00;93650.31;1031121;28;20399;-70
2022/04/01 00:35:18;;;;;;;;;;;;;;;4.18;100.00;93655.50;1029423;28;19965;-71
2022/04/01 00:35:49;;;;;;;;;;;;;;;4.15;100.00;93656.03;1029456;28;20380;-69
2022/04/01 00:36:19;;;;;;;;;;;;;;;4.15;100.00;93656.81;1023615;28;19910;-70
2022/04/01 00:36:50;;;;;;;;;;;;;;;4.16;100.00;93655.78;1027203;28;19922;-70
2022/04/01 00:37:20;;;;;;;;;;;;;;;4.15;100.00;93662.00;1035695;28;19979;-71
2022/04/01 00:37:51;;;;;;;;;;;;;;;4.17;100.00;93656.56;1031519;28;20563;-72
2022/04/01 00:38:22;;;;;;;;;;;;;;;4.19;100.00;93652.66;1035313;28;20363;-70
2022/04/01 00:38:52;;;;;;;;;;;;;;;4.18;100.00;93653.69;1031247;28;19918;-70
2022/04/01 00:39:23;;;;;;;;;;;;;;;4.18;100.00;93650.31;1027582;28;19949;-70
2022/04/01 00:39:53;;;;;;;;;;;;;;;4.19;100.00;93654.44;1031416;28;19938;-71
2022/04/01 00:40:24;;;;;;;;;;;;;;;4.16;100.00;93655.03;1035429;28;19913;-70
2022/04/01 00:40:54;;;;;;;;;;;;;;;4.17;100.00;93657.31;1031402;28;19946;-70
2022/04/01 00:41:24;;;;;;;;;;;;;;;4.16;100.00;93649.81;1031423;28;19913;-70
2022/04/01 00:41:55;;;;;;;;;;;;;;;4.17;100.00;93653.97;1034983;28;19928;-70
2022/04/01 00:42:30;;;;;;;;;;;;;;;4.16;100.00;93653.19;1035425;28;19915;-70
2022/04/01 00:43:00;;;;;;;;;;;;;;;4.17;100.00;93656.56;1035355;28;19968;-70
2022/04/01 00:43:32;;;;;;;;;;;;;;;4.17;100.00;93661.75;1035314;28;19943;-70
2022/04/01 00:44:15;;;;;;;;;;;;;;;4.16;100.00;93657.63;1038124;28;19952;-71
2022/04/01 00:44:45;;;;;;;;;;;;;;;4.16;100.00;93655.03;1037147;28;19960;-70
2022/04/01 00:45:16;;;;;;;;;;;;;;;4.17;100.00;93654.72;1035368;28;19913;-71
2022/04/01 00:45:46;;;;;;;;;;;;;;;4.18;100.00;93658.09;1033741;28;19941;-70
2022/04/01 00:46:18;;;;;;;;;;;;;;;4.17;100.00;93656.56;1031481;28;19944;-70
2022/04/01 00:46:50;;;;;;;;;;;;;;;4.16;100.00;93657.63;1031689;28;19914;-71
2022/04/01 00:47:20;;;;;;;;;;;;;;;4.13;100.00;93658.16;1035406;28;20335;-70
2022/04/01 00:47:51;;;;;;;;;;;;;;;4.10;100.00;93650.91;1031136;28;20009;-70
2022/04/01 00:48:22;;;;;;;;;;;;;;;4.10;100.00;93653.50;1031283;28;19964;-70
2022/04/01 00:48:53;;;;;;;;;;;;;;;4.10;100.00;93653.50;1031318;28;19925;-70
2022/04/01 00:49:23;;;;;;;;;;;;;;;4.08;100.00;93653.78;1031445;28;19925;-70
2022/04/01 00:49:55;;;;;;;;;;;;;;;4.10;100.00;93653.50;1031247;28;19913;-70
2022/04/01 00:50:25;;;;;;;;;;;;;;;4.11;100.00;93655.06;1031023;28;19937;-70
2022/04/01 00:50:55;;;;;;;;;;;;;;;4.11;100.00;93649.88;1035153;28;19932;-71
2022/04/01 00:51:26;;;;;;;;;;;;;;;4.12;100.00;93654.00;1035434;28;20286;-71
2022/04/01 00:51:57;;;;;;;;;;;;;;;4.16;100.00;93655.03;1035035;28;19909;-70
2022/04/01 00:52:27;;;;;;;;;;;;;;;4.14;100.00;93652.69;1035397;28;19924;-70
2022/04/01 00:52:58;;;;;;;;;;;;;;;4.10;100.00;93653.50;1035364;28;19920;-70
2022/04/01 00:53:29;;;;;;;;;;;;;;;4.07;100.00;93660.00;1030983;28;19956;-70
2022/04/01 00:53:59;;;;;;;;;;;;;;;4.08;100.00;93655.59;1027091;28;19969;-70
2022/04/01 00:54:29;;;;;;;;;;;;;;;4.07;100.00;93654.81;1034996;28;20361;-70
2022/04/01 00:55:00;;;;;;;;;;;;;;;4.05;100.00;93651.72;1035725;28;19951;-70
2022/04/01 00:55:30;;;;;;;;;;;;;;;4.06;100.00;93657.69;1034733;28;19922;-70
2022/04/01 00:56:01;;;;;;;;;;;;;;;4.05;100.00;93650.94;1031205;28;19914;-70
2022/04/01 00:56:32;;;;;;;;;;;;;;;4.05;100.00;93653.53;1031533;28;20294;-70
2022/04/01 00:57:03;;;;;;;;;;;;;;;4.05;100.00;93656.13;1027270;28;19918;-70
2022/04/01 00:57:33;;;;;;;;;;;;;;;4.04;100.00;93654.59;1026636;28;19954;-68
2022/04/01 00:58:04;;;;;;;;;;;;;;;4.03;100.00;93653.06;1034387;28;19936;-70
2022/04/01 00:58:35;;;;;;;;;;;;;;;3.82;100.00;93622.06;1027369;28;19914;-70
2022/04/01 00:59:05;;;;;;;;;;;;;;;4.06;100.00;93655.88;1035713;28;20010;-70
2022/04/01 00:59:36;;;;;;;;;;;;;;;4.03;100.00;93653.06;1039253;28;20015;-72
2022/04/01 01:00:06;;;;;;;;;;;;;;;4.03;100.00;93653.06;1039241;28;20354;-70
2022/04/01 01:00:36;;;;;;;;;;;;;;;4.04;100.00;93654.59;1036585;28;19960;-70
2022/04/01 01:01:07;;;;;;;;;;;;;;;4.04;100.00;93655.38;1035368;28;19924;-70
2022/04/01 01:01:37;;;;;;;;;;;;;;;4.07;100.00;93649.63;1035468;28;19920;-70
2022/04/01 01:02:08;;;;;;;;;;;;;;;4.07;100.00;93646.28;1031164;28;20442;-70
2022/04/01 01:02:42;;;;;;;;;;;;;;;4.08;100.00;93651.16;1031274;28;20050;-71
2022/04/01 01:03:13;;;;;;;;;;;;;;;4.09;100.00;93654.53;1032213;28;20423;-70
2022/04/01 01:03:43;;;;;;;;;;;;;;;4.10;100.00;93654.28;1035472;28;20502;-70
2022/04/01 01:04:14;;;;;;;;;;;;;;;4.09;100.00;93652.75;1030679;28;19916;-70
2022/04/01 01:04:45;;;;;;;;;;;;;;;4.11;100.00;93649.88;1031345;28;19918;-70
2022/04/01 01:05:18;;;;;;;;;;;;;;;4.13;100.00;93650.38;1035475;28;20016;-71
2022/04/01 01:05:48;;;;;;;;;;;;;;;4.15;100.00;93645.66;1035692;28;19928;-71
2022/04/01 01:06:19;;;;;;;;;;;;;;;4.13;100.00;93658.16;1023530;28;19910;-71
2022/04/01 01:06:50;;;;;;;;;;;;;;;4.12;100.00;93652.16;1027098;28;19914;-70
2022/04/01 01:07:20;;;;;;;;;;;;;;;4.12;100.00;93654.75;1031493;28;19968;-70
2022/04/01 01:07:51;;;;;;;;;;;;;;;4.12;100.00;93646.22;1031292;28;19918;-70
2022/04/01 01:08:21;;;;;;;;;;;;;;;4.11;100.00;93644.66;1027065;28;20422;-70
2022/04/01 01:08:51;;;;;;;;;;;;;;;4.11;100.00;93649.88;1027443;28;19921;-71
2022/04/01 01:09:25;;;;;;;;;;;;;;;4.12;100.00;93651.41;1027223;28;19937;-69
2022/04/01 01:09:59;;;;;;;;;;;;;;;4.09;100.00;93650.16;1031901;28;19925;-70
2022/04/01 01:10:29;;;;;;;;;;;;;;;4.10;100.00;93650.91;1034047;28;19960;-71
2022/04/01 01:11:01;;;;;;;;;;;;;;;4.09;100.00;93655.34;1035196;28;20186;-70
2022/04/01 01:11:31;;;;;;;;;;;;;;;4.09;100.00;93644.97;1036335;28;19940;-70
2022/04/01 01:12:03;;;;;;;;;;;;;;;4.10;100.00;93653.50;1039036;28;20374;-70
2022/04/01 01:12:33;;;;;;;;;;;;;;;4.09;100.00;93651.94;1039027;28;19921;-70
2022/04/01 01:13:03;;;;;;;;;;;;;;;4.09;100.00;93646.75;1035139;28;19961;-71
2022/04/01 01:13:33;;;;;;;;;;;;;;;4.12;100.00;93654.00;1035230;28;19913;-70
2022/04/01 01:14:04;;;;;;;;;;;;;;;4.11;100.00;93649.88;1037202;28;19924;-69
2022/04/01 01:14:36;;;;;;;;;;;;;;;4.12;100.00;93646.22;1039245;28;20381;-69
2022/04/01 01:15:11;;;;;;;;;;;;;;;4.13;100.00;93643.34;1035146;28;19937;-71
2022/04/01 01:15:42;;;;;;;;;;;;;;;4.13;100.00;93652.97;1035330;28;19957;-70
2022/04/01 01:16:12;;;;;;;;;;;;;;;4.13;100.00;93645.94;1034447;28;20384;-71
2022/04/01 01:17:15;;;;;;;;;;;;;;;4.14;100.00;93650.09;1049975;28;19936;-67
2022/04/01 01:17:45;;;;;;;;;;;;;;;4.14;100.00;93647.50;1042026;28;20469;-67
2022/04/01 01:18:16;;;;;;;;;;;;;;;4.14;100.00;93652.69;1038862;28;20433;-67
2022/04/01 01:18:59;;;;;;;;;;;;;;;4.16;100.00;93649.81;1038957;28;19937;-71
2022/04/01 01:19:30;;;;;;;;;;;;;;;4.18;100.00;93652.91;1036087;28;19902;-67
2022/04/01 01:20:12;;;;;;;;;;;;;;;4.17;100.00;93646.19;1047598;28;20017;-67
2022/04/01 01:20:43;;;;;;;;;;;;;;;4.14;100.00;93650.09;1051254;28;20436;-68
2022/04/01 01:21:14;;;;;;;;;;;;;;;4.11;100.00;93644.66;1049295;28;20019;-67
2022/04/01 01:21:45;;;;;;;;;;;;;;;4.13;100.00;93647.78;1047476;28;19916;-68
2022/04/01 01:22:16;;;;;;;;;;;;;;;4.14;100.00;93649.31;1047361;28;19913;-67
2022/04/01 01:22:49;;;;;;;;;;;;;;;4.11;100.00;93647.25;1047134;28;19991;-67
2022/04/01 01:23:25;;;;;;;;;;;;;;;4.09;100.00;93642.38;1039166;28;20358;-67
2022/04/01 01:23:56;;;;;;;;;;;;;;;4.10;100.00;93643.13;1039864;28;19924;-67
2022/04/01 01:24:27;;;;;;;;;;;;;;;4.11;100.00;93644.66;1038904;28;19913;-67
2022/04/01 01:24:57;;;;;;;;;;;;;;;4.11;100.00;93645.44;1040375;28;19948;-67
2022/04/01 01:25:28;;;;;;;;;;;;;;;4.13;100.00;93647.78;1047841;28;19909;-67
2022/04/01 01:25:58;;;;;;;;;;;;;;;4.13;100.00;93647.78;1047397;28;20452;-66
2022/04/01 01:26:28;;;;;;;;;;;;;;;4.11;100.00;93647.25;1049559;28;20131;-66
2022/04/01 01:26:59;;;;;;;;;;;;;;;4.06;100.00;93636.91;1043268;28;19913;-68
2022/04/01 01:27:29;;;;;;;;;;;;;;;4.12;100.00;93643.63;1039041;28;19976;-68
2022/04/01 01:28:00;;;;;;;;;;;;;;;4.15;100.00;93640.47;1043032;28;19921;-66
2022/04/01 01:28:31;;;;;;;;;;;;;;;4.13;100.00;93642.59;1043484;28;20325;-68
2022/04/01 01:29:02;;;;;;;;;;;;;;;4.11;100.00;93639.47;1043230;28;19950;-65
2022/04/01 01:29:34;;;;;;;;;;;;;;;4.10;100.00;93638.72;1043507;28;19915;-67
2022/04/01 01:30:04;;;;;;;;;;;;;;;4.10;100.00;93643.13;1038289;28;19919;-70
2022/04/01 01:30:35;;;;;;;;;;;;;;;4.08;100.00;93640.03;1036382;28;20345;-69
2022/04/01 01:31:05;;;;;;;;;;;;;;;4.07;100.00;93639.25;1038092;28;19920;-68
2022/04/01 01:31:35;;;;;;;;;;;;;;;4.06;100.00;93642.09;1042825;28;19982;-67
2022/04/01 01:32:10;;;;;;;;;;;;;;;4.08;100.00;93640.03;1043178;28;19905;-67
2022/04/01 01:32:43;;;;;;;;;;;;;;;3.86;100.00;93609.34;1041588;28;19917;-67
2022/04/01 01:33:14;;;;;;;;;;;;;;;4.04;100.00;93642.38;1046737;28;20397;-67
2022/04/01 01:33:44;;;;;;;;;;;;;;;4.00;100.00;93639.56;1042934;28;20375;-67
2022/04/01 01:34:16;;;;;;;;;;;;;;;3.98;100.00;93635.69;1041804;28;20368;-67
2022/04/01 01:34:46;;;;;;;;;;;;;;;3.99;100.00;93638.03;1038761;28;19960;-66
2022/04/01 01:35:16;;;;;;;;;;;;;;;3.99;100.00;93637.22;1038768;28;20374;-67
2022/04/01 01:35:47;;;;;;;;;;;;;;;3.98;100.00;93636.47;1037396;28;19917;-67
2022/04/01 01:36:17;;;;;;;;;;;;;;;4.01;100.00;93642.94;1038698;28;19920;-67
2022/04/01 01:36:47;;;;;;;;;;;;;;;4.00;100.00;93636.97;1042432;28;20020;-67
2022/04/01 01:37:17;;;;;;;;;;;;;;;4.01;100.00;93640.34;1040663;28;20188;-67
2022/04/01 01:37:48;;;;;;;;;;;;;;;3.99;100.00;93635.44;1042927;28;19927;-67
2022/04/01 01:38:19;;;;;;;;;;;;;;;4.00;100.00;93636.97;1040004;28;19916;-67
2022/04/01 01:38:49;;;;;;;;;;;;;;;3.99;100.00;93638.03;1036577;28;19917;-67
2022/04/01 01:39:19;;;;;;;;;;;;;;;4.01;100.00;93635.91;1033053;28;19921;-66
2022/04/01 01:39:50;;;;;;;;;;;;;;;4.01;100.00;93641.09;1030789;28;20012;-65
2022/04/01 01:40:20;;;;;;;;;;;;;;;3.97;100.00;93636.75;1030958;28;19936;-67
2022/04/01 01:40:50;;;;;;;;;;;;;;;3.97;100.00;93639.34;1033161;28;19921;-68
2022/04/01 01:41:21;;;;;;;;;;;;;;;3.94;100.00;93640.66;1034857;28;19949;-67
2022/04/01 01:41:53;;;;;;;;;;;;;;;3.95;100.00;93636.25;1043330;28;20337;-69
2022/04/01 01:42:23;;;;;;;;;;;;;;;3.96;100.00;93635.22;1043474;28;19970;-67
2022/04/01 01:42:53;;;;;;;;;;;;;;;3.94;100.00;93635.47;1046447;28;19917;-67
2022/04/01 01:43:24;;;;;;;;;;;;;;;3.92;100.00;93640.16;1045056;28;20213;-67
2022/04/01 01:43:54;;;;;;;;;;;;;;;3.90;100.00;93636.28;1046080;28;20007;-65
2022/04/01 01:44:25;;;;;;;;;;;;;;;3.91;100.00;93638.59;1050626;28;20393;-66
2022/04/01 01:44:56;;;;;;;;;;;;;;;3.90;100.00;93638.88;1046131;28;19916;-67
2022/04/01 01:45:29;;;;;;;;;;;;;;;3.90;100.00;93639.66;1046779;28;19920;-66
2022/04/01 01:46:00;;;;;;;;;;;;;;;3.87;100.00;93637.59;1043215;28;19913;-67
2022/04/01 01:46:30;;;;;;;;;;;;;;;3.88;100.00;93641.75;1043194;28;20392;-66
2022/04/01 01:47:01;;;;;;;;;;;;;;;3.86;100.00;93636.06;1043735;28;19924;-66
2022/04/01 01:47:31;;;;;;;;;;;;;;;3.88;100.00;93633.19;1039045;28;20751;-68
2022/04/01 01:48:02;;;;;;;;;;;;;;;3.88;100.00;93638.38;1042950;28;19928;-66
2022/04/01 01:48:32;;;;;;;;;;;;;;;3.88;100.00;93633.97;1040517;28;20132;-67
2022/04/01 01:49:05;;;;;;;;;;;;;;;3.87;100.00;93640.19;1030617;28;19972;-66
2022/04/01 01:49:35;;;;;;;;;;;;;;;3.84;100.00;93632.19;1026727;28;19916;-68
2022/04/01 01:55:03;;;;;;;;;;;;;;;3.78;100.00;93639.22;1044340;28;20432;-67
2022/04/01 01:55:33;;;;;;;;;;;;;;;3.78;100.00;93631.44;1050721;28;20368;-65
2022/04/01 01:56:05;;;;;;;;;;;;;;;3.75;100.00;93632.75;1049235;28;19920;-66
2022/04/01 01:56:35;;;;;;;;;;;;;;;3.76;100.00;93634.31;1043611;28;20183;-66
2022/04/01 01:57:06;;;;;;;;;;;;;;;3.75;100.00;93637.16;1039775;28;20375;-67
2022/04/01 01:57:36;;;;;;;;;;;;;;;3.76;100.00;93644.69;1043747;28;20015;-66
2022/04/01 01:58:06;;;;;;;;;;;;;;;3.76;100.00;93634.31;1039414;28;20003;-66
2022/04/01 01:58:36;;;;;;;;;;;;;;;3.76;100.00;93641.34;1039913;28;20341;-65
2022/04/01 01:59:11;;;;;;;;;;;;;;;3.77;100.00;93635.88;1043616;28;20046;-66
2022/04/01 01:59:43;;;;;;;;;;;;;;;3.76;100.00;93641.34;1043745;28;20140;-66
2022/04/01 02:00:16;;;;;;;;;;;;;;;3.76;100.00;93636.91;1043631;28;20044;-66
2022/04/01 02:00:47;;;;;;;;;;;;;;;3.77;100.00;93640.28;1035858;28;19945;-66
2022/04/01 02:01:17;;;;;;;;;;;;;;;3.74;100.00;93641.59;1037497;28;19913;-66
2022/04/01 02:01:47;;;;;;;;;;;;;;;3.73;100.00;93631.50;1043705;28;19921;-66
2022/04/01 02:02:19;;;;;;;;;;;;;;;3.74;100.00;93636.41;1038966;28;20352;-66
2022/04/01 02:02:49;;;;;;;;;;;;;;;3.76;100.00;93642.09;1047947;28;19943;-66
2022/04/01 02:03:19;;;;;;;;;;;;;;;3.75;100.00;93637.94;1040118;28;19913;-66
2022/04/01 02:03:51;;;;;;;;;;;;;;;3.75;100.00;93642.38;1045279;28;19917;-65
2022/04/01 02:04:22;;;;;;;;;;;;;;;3.77;100.00;93627.31;1052109;28;20313;-66
2022/04/01 02:04:52;;;;;;;;;;;;;;;3.75;100.00;93635.34;1049448;28;19913;-66
2022/04/01 02:05:23;;;;;;;;;;;;;;;3.77;100.00;93632.50;1048128;28;19913;-65
2022/04/01 02:05:53;;;;;;;;;;;;;;;3.76;100.00;93631.72;1048307;28;20545;-66
2022/04/01 02:06:23;;;;;;;;;;;;;;;3.74;100.00;93635.63;1046579;28;19908;-65
2022/04/01 02:06:54;;;;;;;;;;;;;;;3.72;100.00;93640.31;1044038;28;19959;-66
2022/04/01 02:07:27;;;;;;;;;;;;;;;3.73;100.00;93637.47;1051271;28;19957;-66
2022/04/01 02:08:00;;;;;;;;;;;;;;;3.74;100.00;93627.84;1052347;28;20212;-66
2022/04/01 02:08:31;;;;;;;;;;;;;;;3.71;100.00;93636.16;1047962;28;19913;-67
2022/04/01 02:09:01;;;;;;;;;;;;;;;3.70;100.00;93638.00;1050305;28;20026;-66
2022/04/01 02:09:31;;;;;;;;;;;;;;;3.71;100.00;93636.16;1048531;28;19995;-67
2022/04/01 02:10:02;;;;;;;;;;;;;;;3.69;100.00;93639.06;1036200;28;19917;-64
2022/04/01 02:10:32;;;;;;;;;;;;;;;3.69;100.00;93633.06;1040509;28;19940;-66
2022/04/01 02:11:03;;;;;;;;;;;;;;;3.70;100.00;93632.03;1039418;28;19909;-65
2022/04/01 02:11:33;;;;;;;;;;;;;;;3.73;100.00;93640.06;1035759;28;20282;-67
2022/04/01 02:12:06;;;;;;;;;;;;;;;3.72;100.00;93637.72;1040086;28;19940;-66
2022/04/01 02:12:41;;;;;;;;;;;;;;;3.74;100.00;93633.03;1035627;28;19913;-66
2022/04/01 02:13:12;;;;;;;;;;;;;;;3.72;100.00;93638.50;1032997;28;20752;-66
2022/04/01 02:13:45;;;;;;;;;;;;;;;3.71;100.00;93636.94;1032858;28;19914;-66
2022/04/01 02:14:15;;;;;;;;;;;;;;;3.70;100.00;93637.22;1034004;28;19918;-66
2022/04/01 02:14:45;;;;;;;;;;;;;;;3.72;100.00;93641.09;1040222;28;20310;-66
2022/04/01 02:15:16;;;;;;;;;;;;;;;3.69;100.00;93630.47;1039917;28;19916;-66
2022/04/01 02:15:49;;;;;;;;;;;;;;;3.69;100.00;93639.06;1043075;28;19914;-67
2022/04/01 02:16:21;;;;;;;;;;;;;;;3.68;100.00;93639.31;1048788;28;19919;-66
2022/04/01 02:16:51;;;;;;;;;;;;;;;3.67;100.00;93640.34;1044503;28;20359;-66
2022/04/01 02:17:22;;;;;;;;;;;;;;;3.68;100.00;93627.09;1049118;28;20368;-65
2022/04/01 02:17:52;;;;;;;;;;;;;;;3.67;100.00;93635.16;1048176;28;20370;-65
2022/04/01 02:18:22;;;;;;;;;;;;;;;3.66;100.00;93639.59;1037829;28;19913;-66
2022/04/01 02:18:53;;;;;;;;;;;;;;;3.66;100.00;93631.03;1040023;28;20000;-66
2022/04/01 02:19:23;;;;;;;;;;;;;;;3.66;100.00;93633.63;1043348;28;19913;-65
2022/04/01 02:19:54;;;;;;;;;;;;;;;3.66;100.00;93638.81;1043299;28;19975;-66
2022/04/01 02:20:24;;;;;;;;;;;;;;;3.66;100.00;93636.22;1048443;28;19950;-66
2022/04/01 02:20:54;;;;;;;;;;;;;;;3.67;100.00;93627.38;1045735;28;19979;-65
2022/04/01 02:21:25;;;;;;;;;;;;;;;3.68;100.00;93631.53;1048319;28;19919;-66
2022/04/01 02:21:55;;;;;;;;;;;;;;;3.68;100.00;93631.53;1048748;28;19924;-66
2022/04/01 02:22:25;;;;;;;;;;;;;;;3.68;100.00;93639.31;1048533;28;19913;-67
2022/04/01 02:22:56;;;;;;;;;;;;;;;3.68;100.00;93634.13;1052449;28;19920;-65
2022/04/01 02:23:26;;;;;;;;;;;;;;;3.67;100.00;93630.75;1050206;28;19913;-66
2022/04/01 02:23:56;;;;;;;;;;;;;;;3.69;100.00;93633.06;1039312;28;20315;-68
2022/04/01 02:24:26;;;;;;;;;;;;;;;3.66;100.00;93639.59;1042826;28;20027;-66
2022/04/01 02:24:57;;;;;;;;;;;;;;;3.68;100.00;93640.06;1039912;28;19924;-67
2022/04/01 02:25:31;;;;;;;;;;;;;;;3.68;100.00;93631.53;1043827;28;19920;-67
2022/04/01 02:26:02;;;;;;;;;;;;;;;3.69;100.00;93635.66;1048000;28;20540;-64
2022/04/01 02:26:34;;;;;;;;;;;;;;;3.69;100.00;93635.66;1043868;28;19952;-67
2022/04/01 02:27:04;;;;;;;;;;;;;;;3.68;100.00;93636.72;1043954;28;20425;-66
2022/04/01 02:27:34;;;;;;;;;;;;;;;3.71;100.00;93631.00;1040098;28;19913;-65
2022/04/01 02:28:05;;;;;;;;;;;;;;;3.72;100.00;93635.91;1043686;28;19916;-66
2022/04/01 02:28:38;;;;;;;;;;;;;;;3.67;100.00;93633.34;1044204;28;19943;-66
2022/04/01 02:29:10;;;;;;;;;;;;;;;3.68;100.00;93636.72;1039816;28;20350;-67
2022/04/01 02:29:40;;;;;;;;;;;;;;;3.65;100.00;93629.47;1040453;28;19948;-66
2022/04/01 02:30:10;;;;;;;;;;;;;;;3.66;100.00;93633.63;1044128;28;20446;-67
2022/04/01 02:30:41;;;;;;;;;;;;;;;3.66;100.00;93633.63;1035859;28;19913;-66
2022/04/01 02:31:11;;;;;;;;;;;;;;;3.63;100.00;93632.34;1043640;28;19916;-66
2022/04/01 02:31:42;;;;;;;;;;;;;;;3.64;100.00;93635.72;1042830;28;19940;-66
2022/04/01 02:32:13;;;;;;;;;;;;;;;3.63;100.00;93628.97;1040163;28;19917;-66
2022/04/01 02:32:43;;;;;;;;;;;;;;;3.63;100.00;93634.19;1044228;28;19943;-66
2022/04/01 02:33:16;;;;;;;;;;;;;;;3.62;100.00;93640.38;1043808;28;20016;-66
2022/04/01 02:33:46;;;;;;;;;;;;;;;3.61;100.00;93633.66;1043914;28;19919;-67
2022/04/01 02:34:17;;;;;;;;;;;;;;;3.61;100.00;93634.44;1039541;28;19936;-67
2022/04/01 02:34:48;;;;;;;;;;;;;;;3.63;100.00;93631.59;1043975;28;20603;-66
2022/04/01 02:35:19;;;;;;;;;;;;;;;3.62;100.00;93633.41;1044459;28;19927;-67
2022/04/01 02:35:50;;;;;;;;;;;;;;;3.64;100.00;93635.72;1044004;28;19924;-67
2022/04/01 02:36:21;;;;;;;;;;;;;;;3.62;100.00;93638.59;1048012;28;20002;-66
2022/04/01 02:36:51;;;;;;;;;;;;;;;3.63;100.00;93631.59;1044100;28;19924;-67
2022/04/01 02:37:25;;;;;;;;;;;;;;;3.62;100.00;93632.59;1039735;28;20011;-66
2022/04/01 02:37:55;;;;;;;;;;;;;;;3.63;100.00;93637.53;1035927;28;19948;-67
2022/04/01 02:38:26;;;;;;;;;;;;;;;3.60;100.00;93637.31;1036112;28;19968;-66
2022/04/01 02:38:58;;;;;;;;;;;;;;;3.58;100.00;93627.19;1036449;28;20009;-66
2022/04/01 02:39:31;;;;;;;;;;;;;;;3.59;100.00;93633.94;1040147;28;19917;-66
2022/04/01 02:40:02;;;;;;;;;;;;;;;3.57;100.00;93633.44;1036037;28;19947;-66
2022/04/01 02:40:38;;;;;;;;;;;;;;;3.58;100.00;93636.78;1038377;28;20394;-68
2022/04/01 02:41:08;;;;;;;;;;;;;;;3.59;100.00;93633.13;1043793;28;19949;-68
2022/04/01 02:41:39;;;;;;;;;;;;;;;3.60;100.00;93635.47;1040933;28;19913;-67
2022/04/01 02:42:09;;;;;;;;;;;;;;;3.61;100.00;93633.66;1043447;28;20016;-67
2022/04/01 02:42:40;;;;;;;;;;;;;;;3.62;100.00;93637.78;1043699;28;19937;-67
2022/04/01 02:43:10;;;;;;;;;;;;;;;3.60;100.00;93637.31;1043768;28;19927;-68
2022/04/01 02:43:40;;;;;;;;;;;;;;;3.61;100.00;93636.25;1043400;28;19984;-66
2022/04/01 02:44:13;;;;;;;;;;;;;;;3.63;100.00;93631.59;1042634;28;19920;-67
2022/04/01 02:44:44;;;;;;;;;;;;;;;3.60;100.00;93640.66;1039425;28;19913;-67
2022/04/01 02:45:14;;;;;;;;;;;;;;;3.60;100.00;93629.53;1039276;28;19917;-66
2022/04/01 02:45:45;;;;;;;;;;;;;;;3.60;100.00;93639.91;1038434;28;19917;-66
2022/04/01 02:46:15;;;;;;;;;;;;;;;3.60;100.00;93639.91;1036419;28;19956;-68
2022/04/01 02:46:48;;;;;;;;;;;;;;;3.61;100.00;93641.44;1041284;28;20394;-67
2022/04/01 02:47:20;;;;;;;;;;;;;;;3.64;100.00;93640.91;1039843;28;19947;-66